Time;durP1;ratioP1;P1;durP2;ratioP2;P2;SDS_P1;SDS_P2;PMS_P1;PMS_P2;Temp;Humidity;BMP_temperature;BMP_pressure;BME280_temperature;BME280_humidity;BME280_pressure;Samples;Min_cycle;Max_cycle;Signal;HPM_P1;HPM_P2
2021/10/20 00:00:48;;;;;;;10.38;2.40;;;;;;;24.90;45.65;99323.72;4413083;32;20388;-68
2021/10/20 00:03:14;;;;;;;15.65;2.78;;;;;;;24.72;45.89;99319.81;4412292;32;20044;-68
2021/10/20 00:05:44;;;;;;;19.73;3.15;;;;;;;24.88;45.51;99326.41;4410499;32;20102;-68
2021/10/20 00:08:10;;;;;;;12.05;2.47;;;;;;;24.47;46.28;99317.97;4410365;32;20173;-68
2021/10/20 00:10:36;;;;;;;13.60;2.45;;;;;;;24.76;45.77;99311.59;4411624;32;20036;-68
2021/10/20 00:13:02;;;;;;;20.65;2.30;;;;;;;24.68;45.93;99307.94;4411233;32;20384;-69
2021/10/20 00:15:28;;;;;;;16.77;3.17;;;;;;;24.65;45.77;99300.44;4411520;32;20117;-68
2021/10/20 00:17:54;;;;;;;21.67;2.90;;;;;;;24.66;45.72;99292.56;4410303;32;20103;-69
2021/10/20 00:20:22;;;;;;;17.60;3.58;;;;;;;24.90;45.18;99307.22;4412686;32;20085;-69
2021/10/20 00:22:50;;;;;;;13.05;2.65;;;;;;;24.77;45.14;99316.00;4409676;32;20081;-69
2021/10/20 00:25:16;;;;;;;12.80;2.58;;;;;;;24.73;45.17;99301.22;4410265;32;20060;-68
2021/10/20 00:27:44;;;;;;;20.55;2.35;;;;;;;24.80;45.16;99293.94;4412179;32;20481;-68
2021/10/20 00:30:10;;;;;;;16.98;3.08;;;;;;;24.95;44.49;99302.63;4413816;32;20119;-68
2021/10/20 00:32:36;;;;;;;18.35;2.78;;;;;;;24.91;44.46;99282.84;4415681;32;20074;-68
2021/10/20 00:35:02;;;;;;;18.52;2.65;;;;;;;24.71;44.48;99275.13;4413990;32;20408;-68
2021/10/20 00:37:28;;;;;;;13.35;2.47;;;;;;;25.05;44.14;99280.56;4413642;32;20544;-68
2021/10/20 00:39:54;;;;;;;18.25;2.80;;;;;;;24.48;44.83;99274.25;4413222;32;20034;-68
2021/10/20 00:42:23;;;;;;;18.77;2.87;;;;;;;24.96;44.03;99270.41;4415512;32;20624;-68
2021/10/20 00:44:53;;;;;;;11.10;1.90;;;;;;;24.82;44.22;99285.53;4413528;32;20034;-68
2021/10/20 00:47:20;;;;;;;20.27;3.03;;;;;;;24.87;44.29;99285.34;4414952;32;20126;-68
2021/10/20 00:49:47;;;;;;;17.35;2.97;;;;;;;24.63;44.73;99287.91;4413719;32;20062;-68
2021/10/20 00:52:13;;;;;;;12.85;2.58;;;;;;;25.03;44.00;99275.38;4413711;32;20065;-68
2021/10/20 00:54:40;;;;;;;19.52;3.70;;;;;;;24.56;44.92;99291.53;4413868;32;20058;-68
2021/10/20 00:57:06;;;;;;;16.33;2.78;;;;;;;24.80;44.60;99317.75;4396595;32;20068;-68
2021/10/20 00:59:34;;;;;;;12.93;2.83;;;;;;;24.38;45.47;99322.16;4414343;32;20105;-68
2021/10/20 01:01:59;;;;;;;18.77;2.72;;;;;;;24.70;44.99;99316.75;4415944;32;20426;-68
2021/10/20 01:04:26;;;;;;;12.43;2.55;;;;;;;24.33;45.51;99290.69;4413362;32;20066;-68
2021/10/20 01:06:52;;;;;;;17.52;2.90;;;;;;;24.45;45.41;99269.66;4412357;32;20119;-68
2021/10/20 01:09:19;;;;;;;23.30;3.42;;;;;;;24.34;45.47;99260.59;4413106;32;20066;-68
2021/10/20 01:11:45;;;;;;;17.65;2.75;;;;;;;24.38;45.41;99272.50;4414262;32;20191;-68
2021/10/20 01:14:12;;;;;;;10.40;2.10;;;;;;;23.98;46.33;99279.97;4413733;32;20073;-68
2021/10/20 01:16:39;;;;;;;17.33;3.35;;;;;;;24.13;45.97;99260.72;4414194;32;20068;-68
2021/10/20 01:19:06;;;;;;;16.08;2.75;;;;;;;24.08;46.24;99250.12;4414459;32;20085;-68
2021/10/20 01:21:32;;;;;;;20.90;3.08;;;;;;;24.25;45.94;99250.41;4414998;32;20097;-68
2021/10/20 01:23:59;;;;;;;17.12;3.08;;;;;;;24.20;45.99;99242.72;4414780;32;20382;-68
2021/10/20 01:26:25;;;;;;;12.02;2.40;;;;;;;24.32;45.61;99246.78;4398632;32;20077;-68
2021/10/20 01:28:51;;;;;;;20.80;2.45;;;;;;;24.19;45.87;99252.69;4412845;32;20041;-68
2021/10/20 01:31:17;;;;;;;23.38;3.15;;;;;;;24.40;45.34;99256.22;4414004;32;20474;-68
2021/10/20 01:33:43;;;;;;;16.27;3.08;;;;;;;24.36;45.59;99255.81;4413748;32;20507;-68
2021/10/20 01:36:10;;;;;;;17.60;2.60;;;;;;;24.46;45.12;99227.28;4412681;32;20131;-68
2021/10/20 01:38:35;;;;;;;25.30;3.85;;;;;;;24.34;45.29;99224.00;4413962;32;20070;-68
2021/10/20 01:41:01;;;;;;;20.37;2.70;;;;;;;24.60;44.53;99228.66;4401883;32;20098;-68
2021/10/20 01:43:48;;;;;;;19.33;2.80;;;;;;;24.33;45.29;99236.06;4412660;32;20165;-68
2021/10/20 01:46:18;;;;;;;15.30;2.72;;;;;;;24.85;44.21;99232.59;4413527;32;20091;-68
2021/10/20 01:48:44;;;;;;;13.10;2.70;;;;;;;24.91;44.05;99213.03;4413775;32;20042;-68
2021/10/20 01:51:10;;;;;;;13.77;2.67;;;;;;;24.46;44.49;99207.16;4412385;32;20479;-68
2021/10/20 01:53:36;;;;;;;16.33;2.55;;;;;;;24.21;45.32;99201.13;4414057;32;20069;-68
2021/10/20 01:56:04;;;;;;;20.42;4.03;;;;;;;24.08;45.42;99192.66;4413348;32;20073;-68
2021/10/20 01:58:30;;;;;;;23.38;3.30;;;;;;;24.63;44.58;99190.88;4412401;32;20407;-68
2021/10/20 02:00:56;;;;;;;29.35;3.10;;;;;;;24.70;44.18;99189.41;4413564;32;20069;-68
2021/10/20 02:03:24;;;;;;;18.67;2.80;;;;;;;24.75;44.05;99180.59;4414591;32;20054;-68
2021/10/20 02:05:53;;;;;;;18.25;3.12;;;;;;;25.06;43.51;99184.22;4412843;32;20085;-68
2021/10/20 02:08:18;;;;;;;17.35;2.80;;;;;;;25.08;43.65;99193.84;4398807;32;20064;-68
2021/10/20 02:10:44;;;;;;;16.55;2.72;;;;;;;24.91;43.96;99196.50;4413939;32;20026;-68
2021/10/20 02:13:10;;;;;;;16.27;2.58;;;;;;;24.95;44.15;99211.28;4412872;32;20133;-68
2021/10/20 02:15:36;;;;;;;24.00;3.17;;;;;;;24.97;44.00;99205.72;4411805;32;20419;-68
2021/10/20 02:18:02;;;;;;;17.40;2.85;;;;;;;25.02;43.96;99204.78;4413041;32;20061;-68
2021/10/20 02:20:28;;;;;;;16.08;2.42;;;;;;;25.00;43.92;99210.34;4412651;32;20050;-68
2021/10/20 02:22:54;;;;;;;18.40;3.17;;;;;;;25.04;43.98;99213.59;4412728;32;20105;-68
2021/10/20 02:25:22;;;;;;;16.42;3.10;;;;;;;24.96;44.16;99220.69;4408516;32;20057;-68
2021/10/20 02:27:49;;;;;;;16.08;2.92;;;;;;;24.99;44.01;99222.41;4550007;26;20617;-71
2021/10/20 02:30:15;;;;;;;17.12;3.17;;;;;;;24.96;44.30;99209.19;4397905;32;20115;-71
2021/10/20 02:32:41;;;;;;;20.45;2.85;;;;;;;24.91;44.18;99225.28;4405674;32;20045;-71
2021/10/20 02:35:08;;;;;;;16.95;2.95;;;;;;;24.86;43.46;99234.91;4403999;32;20091;-71
2021/10/20 02:37:34;;;;;;;17.77;3.00;;;;;;;24.93;43.89;99228.38;4404650;32;20030;-71
2021/10/20 02:40:00;;;;;;;13.15;2.60;;;;;;;24.90;44.02;99223.75;4392166;32;20495;-71
2021/10/20 02:42:27;;;;;;;17.20;2.55;;;;;;;24.77;44.21;99209.56;4409781;32;20154;-71
2021/10/20 02:44:52;;;;;;;21.73;2.97;;;;;;;24.98;43.99;99200.75;4406774;32;21107;-71
2021/10/20 02:47:18;;;;;;;20.35;2.80;;;;;;;24.84;44.15;99187.88;4407494;32;20605;-71
2021/10/20 02:49:44;;;;;;;16.67;2.97;;;;;;;24.80;44.18;99181.75;4404426;32;20469;-71
2021/10/20 02:52:10;;;;;;;17.42;2.85;;;;;;;24.82;44.14;99181.94;4406658;32;20548;-71
2021/10/20 02:54:36;;;;;;;17.90;3.12;;;;;;;24.80;44.01;99181.75;4407553;32;20407;-71
2021/10/20 02:57:02;;;;;;;20.40;3.62;;;;;;;24.90;43.95;99177.72;4394592;32;20077;-71
2021/10/20 02:59:28;;;;;;;17.42;2.58;;;;;;;24.86;43.68;99174.47;4408816;32;20351;-71
2021/10/20 03:01:54;;;;;;;19.62;3.00;;;;;;;24.73;44.31;99166.00;4405889;32;20034;-71
2021/10/20 03:04:20;;;;;;;19.00;2.67;;;;;;;24.93;43.98;99170.03;4406416;32;20099;-71
2021/10/20 03:06:45;;;;;;;19.35;2.83;;;;;;;24.95;43.74;99173.13;4407413;32;20065;-71
2021/10/20 03:09:11;;;;;;;18.80;2.60;;;;;;;24.86;43.62;99162.19;4404384;32;20035;-71
2021/10/20 03:11:37;;;;;;;17.87;3.20;;;;;;;24.89;43.59;99152.41;4409018;32;20174;-71
2021/10/20 03:14:02;;;;;;;14.80;2.85;;;;;;;25.02;43.23;99157.94;4405963;32;20070;-71
2021/10/20 03:16:28;;;;;;;11.25;2.12;;;;;;;25.03;43.27;99154.50;4404609;32;20092;-71
2021/10/20 03:18:55;;;;;;;20.27;3.12;;;;;;;25.01;43.22;99145.66;4404165;32;20520;-71
2021/10/20 03:21:22;;;;;;;18.95;2.95;;;;;;;24.99;43.25;99142.59;4406995;32;20127;-71
2021/10/20 03:23:49;;;;;;;18.75;3.20;;;;;;;24.89;42.92;99135.91;4406236;32;20103;-71
2021/10/20 03:26:15;;;;;;;22.98;3.28;;;;;;;24.90;42.76;99128.78;4403513;32;20089;-71
2021/10/20 03:28:40;;;;;;;17.48;3.65;;;;;;;24.95;42.53;99132.81;4406328;32;20106;-71
2021/10/20 03:31:06;;;;;;;19.20;2.62;;;;;;;24.85;42.92;99126.88;4404475;32;20374;-71
2021/10/20 03:33:32;;;;;;;23.40;2.78;;;;;;;24.98;42.86;99125.91;4406266;32;20513;-71
2021/10/20 03:35:58;;;;;;;15.32;2.87;;;;;;;25.06;42.96;99124.56;4407858;32;20343;-71
2021/10/20 03:38:23;;;;;;;18.60;3.03;;;;;;;24.78;42.31;99124.78;4403778;32;20069;-71
2021/10/20 03:40:49;;;;;;;15.88;2.70;;;;;;;24.62;42.64;99116.69;4405969;32;20521;-71
2021/10/20 03:43:14;;;;;;;21.10;2.95;;;;;;;24.64;42.62;99117.66;4403643;32;20073;-71
2021/10/20 03:45:40;;;;;;;14.15;2.42;;;;;;;24.93;42.06;99109.59;4404876;32;20034;-71
2021/10/20 03:48:06;;;;;;;14.73;2.72;;;;;;;24.85;42.16;99097.34;4409501;32;20054;-71
2021/10/20 03:50:32;;;;;;;18.65;3.05;;;;;;;24.80;41.28;99106.94;4405356;32;20143;-71
2021/10/20 03:52:57;;;;;;;16.20;2.97;;;;;;;24.86;41.18;99104.63;4405399;32;20089;-71
2021/10/20 03:55:23;;;;;;;18.98;2.90;;;;;;;24.96;41.22;99100.59;4404050;32;20043;-71
2021/10/20 03:57:49;;;;;;;20.90;3.05;;;;;;;24.88;41.15;99094.06;4404078;32;20477;-71
2021/10/20 04:00:16;;;;;;;22.65;2.97;;;;;;;24.98;41.47;99094.25;4406770;32;20064;-71
2021/10/20 04:02:44;;;;;;;15.32;2.87;;;;;;;25.18;41.60;99085.38;4407718;32;20119;-71
2021/10/20 04:05:13;;;;;;;17.08;3.08;;;;;;;25.15;41.58;99074.25;4408076;32;20023;-71
2021/10/20 04:07:40;;;;;;;25.15;4.22;;;;;;;25.21;41.63;99086.34;4407400;32;20038;-71
2021/10/20 04:10:10;;;;;;;21.17;4.72;;;;;;;25.08;41.48;99078.69;4408691;32;20096;-71
2021/10/20 04:12:36;;;;;;;21.60;4.28;;;;;;;24.84;41.64;99070.69;4405988;32;20111;-71
2021/10/20 04:15:03;;;;;;;17.85;4.37;;;;;;;24.96;40.82;99086.19;4406932;32;20422;-71
2021/10/20 04:17:28;;;;;;;15.65;3.55;;;;;;;24.71;41.01;99091.03;4409093;32;20434;-71
2021/10/20 04:19:54;;;;;;;13.60;3.70;;;;;;;24.86;40.55;99093.13;4405680;32;20084;-71
2021/10/20 04:22:20;;;;;;;29.15;7.28;;;;;;;24.87;40.78;99078.16;4408125;32;20063;-71
2021/10/20 04:24:45;;;;;;;23.02;7.10;;;;;;;24.80;40.88;99066.66;4408619;32;21045;-71
2021/10/20 04:27:11;;;;;;;23.17;5.95;;;;;;;24.60;40.77;99056.84;4405793;32;20093;-71
2021/10/20 04:29:37;;;;;;;20.35;5.18;;;;;;;24.52;40.93;99053.22;4406557;32;20060;-71
2021/10/20 04:32:03;;;;;;;23.10;6.18;;;;;;;24.44;41.45;99043.81;4409706;32;20084;-71
2021/10/20 04:34:29;;;;;;;20.40;4.70;;;;;;;24.67;40.60;99027.34;4409149;32;20220;-71
2021/10/20 04:36:55;;;;;;;19.27;3.95;;;;;;;24.56;41.26;99019.09;4410053;32;20362;-71
2021/10/20 04:39:20;;;;;;;17.15;4.00;;;;;;;24.60;41.47;99021.56;4413005;32;20202;-71
2021/10/20 04:41:46;;;;;;;25.62;4.53;;;;;;;24.60;41.50;99022.34;4408882;32;20098;-71
2021/10/20 04:44:12;;;;;;;22.83;3.70;;;;;;;24.20;42.57;99007.00;4409343;32;20137;-71
2021/10/20 04:46:38;;;;;;;19.80;3.70;;;;;;;24.02;42.74;99005.25;4409366;32;20049;-71
2021/10/20 04:49:04;;;;;;;22.95;3.80;;;;;;;24.08;42.66;98996.47;4411624;32;20472;-71
2021/10/20 04:51:30;;;;;;;19.02;3.50;;;;;;;23.73;43.87;99015.34;4409558;32;20105;-71
2021/10/20 04:53:56;;;;;;;18.90;3.45;;;;;;;23.84;43.97;99002.72;4405665;32;20456;-71
2021/10/20 04:56:22;;;;;;;19.17;3.05;;;;;;;23.78;44.16;98994.31;4408141;32;20080;-71
2021/10/20 04:58:48;;;;;;;18.45;3.40;;;;;;;23.64;44.53;98992.91;4407598;32;20034;-71
2021/10/20 05:01:14;;;;;;;21.75;3.60;;;;;;;23.49;44.75;98984.25;4406484;32;20393;-71
2021/10/20 05:03:39;;;;;;;20.15;2.83;;;;;;;23.14;45.42;98980.06;4407736;32;20041;-71
2021/10/20 05:06:05;;;;;;;16.73;3.03;;;;;;;23.43;44.90;98977.91;4407751;32;20073;-71
2021/10/20 05:08:31;;;;;;;20.98;3.50;;;;;;;23.33;45.12;98974.84;4405400;32;20098;-71
2021/10/20 05:10:58;;;;;;;24.48;4.25;;;;;;;23.24;45.09;98972.50;4409236;32;20061;-71
2021/10/20 05:13:24;;;;;;;17.30;3.05;;;;;;;23.47;44.80;98969.69;4406692;32;20078;-71
2021/10/20 05:15:50;;;;;;;24.50;3.60;;;;;;;23.49;44.76;98950.59;4405632;32;20066;-71
2021/10/20 05:18:16;;;;;;;27.15;3.20;;;;;;;23.66;44.44;98935.69;4407233;32;20090;-71
2021/10/20 05:20:42;;;;;;;21.00;3.90;;;;;;;23.70;44.29;98943.91;4410136;32;21086;-71
2021/10/20 05:23:10;;;;;;;16.08;3.15;;;;;;;23.47;44.73;98946.72;4407943;32;20539;-71
2021/10/20 05:25:38;;;;;;;23.35;4.22;;;;;;;23.54;44.84;98943.88;4408284;32;20073;-71
2021/10/20 05:28:05;;;;;;;25.65;4.43;;;;;;;23.47;45.17;98933.16;4408130;32;20042;-71
2021/10/20 05:30:32;;;;;;;19.05;4.40;;;;;;;23.49;45.08;98932.59;4410087;32;20041;-71
2021/10/20 05:32:57;;;;;;;19.42;3.47;;;;;;;23.34;45.11;98944.03;4408616;32;20089;-71
2021/10/20 05:35:23;;;;;;;18.48;3.83;;;;;;;23.02;45.27;98935.09;4406706;32;20066;-71
2021/10/20 05:37:51;;;;;;;26.90;3.50;;;;;;;23.09;45.32;98937.22;4404568;32;20112;-71
2021/10/20 05:40:19;;;;;;;18.45;3.55;;;;;;;23.12;45.30;98945.47;4408845;32;20509;-71
2021/10/20 05:42:45;;;;;;;23.27;3.25;;;;;;;23.05;45.39;98937.59;4406868;32;20141;-71
2021/10/20 05:45:10;;;;;;;19.30;3.42;;;;;;;22.68;45.89;98925.94;4407088;32;20641;-71
2021/10/20 05:47:36;;;;;;;18.48;2.90;;;;;;;22.82;45.46;98919.50;4407340;32;20030;-71
2021/10/20 05:50:03;;;;;;;20.30;3.42;;;;;;;22.84;45.38;98907.47;4406346;32;21204;-71
2021/10/20 05:52:29;;;;;;;31.20;3.85;;;;;;;22.77;45.64;98908.97;4408063;32;20402;-71
2021/10/20 05:54:55;;;;;;;27.45;3.87;;;;;;;22.70;45.52;98906.09;4406988;32;20127;-71
2021/10/20 05:57:22;;;;;;;21.10;4.18;;;;;;;22.68;45.31;98900.12;4406964;32;20119;-71
2021/10/20 05:59:48;;;;;;;22.05;3.53;;;;;;;22.59;45.71;98881.37;4407347;32;20029;-71
2021/10/20 06:02:14;;;;;;;21.92;3.20;;;;;;;22.79;45.30;98871.09;4408917;32;20022;-71
2021/10/20 06:04:41;;;;;;;26.23;4.05;;;;;;;22.83;45.24;98865.78;4407049;32;20129;-71
2021/10/20 06:07:07;;;;;;;24.05;3.08;;;;;;;23.16;44.70;98847.50;4406669;32;20393;-71
2021/10/20 06:09:35;;;;;;;23.92;3.80;;;;;;;22.62;45.48;98845.06;4404612;32;20033;-71
2021/10/20 06:12:04;;;;;;;19.52;3.20;;;;;;;22.70;45.43;98837.25;4406511;32;20078;-71
2021/10/20 06:14:30;;;;;;;27.48;3.97;;;;;;;22.83;45.21;98837.84;4404052;32;20026;-71
2021/10/20 06:16:56;;;;;;;22.08;3.90;;;;;;;22.78;45.33;98841.69;4407077;32;20418;-71
2021/10/20 06:19:22;;;;;;;23.58;4.43;;;;;;;22.47;45.90;98850.69;4408403;32;20505;-71
2021/10/20 06:21:48;;;;;;;27.85;4.18;;;;;;;22.49;45.64;98830.81;4405482;32;20089;-71
2021/10/20 06:24:14;;;;;;;26.67;4.18;;;;;;;22.63;45.58;98835.09;4407255;32;20165;-71
2021/10/20 06:26:40;;;;;;;21.20;4.15;;;;;;;22.25;46.49;98840.66;4404393;32;20057;-71
2021/10/20 06:29:06;;;;;;;20.50;3.58;;;;;;;22.21;46.68;98845.19;4406603;32;20097;-70
2021/10/20 06:31:32;;;;;;;16.02;3.37;;;;;;;22.17;46.91;98841.91;4407261;32;20069;-70
2021/10/20 06:33:58;;;;;;;24.05;3.45;;;;;;;22.04;46.93;98845.66;4407053;32;20060;-70
2021/10/20 06:36:31;;;;;;;26.52;3.87;;;;;;;22.00;46.44;98836.66;4406719;32;20069;-70
2021/10/20 06:38:57;;;;;;;21.85;3.37;;;;;;;22.41;46.26;98844.34;4404094;32;20106;-71
2021/10/20 06:41:23;;;;;;;17.50;3.33;;;;;;;22.22;46.76;98846.72;4404323;32;20042;-71
2021/10/20 06:43:49;;;;;;;21.02;3.83;;;;;;;22.09;47.01;98843.97;4397046;32;20854;-70
2021/10/20 06:46:15;;;;;;;22.62;3.75;;;;;;;22.14;47.12;98843.81;4400250;32;20105;-70
2021/10/20 06:48:41;;;;;;;15.95;3.75;;;;;;;22.22;46.92;98850.37;4398437;32;20074;-70
2021/10/20 06:51:09;;;;;;;22.83;4.60;;;;;;;22.26;46.74;98847.91;4399909;32;20112;-70
2021/10/20 06:53:35;;;;;;;19.35;3.50;;;;;;;22.34;46.61;98845.09;4401588;32;20077;-70
2021/10/20 06:56:03;;;;;;;20.95;3.22;;;;;;;22.32;46.79;98853.47;4397323;32;20103;-70
2021/10/20 06:58:29;;;;;;;24.63;3.78;;;;;;;22.44;46.65;98851.81;4394586;32;20456;-70
2021/10/20 07:00:55;;;;;;;23.58;4.55;;;;;;;22.41;46.41;98855.81;4399482;32;20101;-71
2021/10/20 07:03:21;;;;;;;21.23;4.62;;;;;;;22.43;46.64;98842.44;4399881;32;20058;-72
2021/10/20 07:05:47;;;;;;;21.12;4.72;;;;;;;22.03;47.40;98831.91;4401150;32;20562;-72
2021/10/20 07:08:13;;;;;;;25.27;5.95;;;;;;;22.42;46.72;98835.19;4388583;32;20038;-72
2021/10/20 07:10:39;;;;;;;28.80;6.07;;;;;;;22.34;46.78;98833.63;4398779;32;20092;-72
2021/10/20 07:13:05;;;;;;;21.23;4.70;;;;;;;22.05;47.64;98832.09;4402153;32;20458;-71
2021/10/20 07:15:31;;;;;;;27.13;4.87;;;;;;;22.51;46.66;98823.22;4401321;32;20045;-71
2021/10/20 07:17:57;;;;;;;29.08;5.35;;;;;;;22.52;46.54;98813.28;4402204;32;20112;-71
2021/10/20 07:20:23;;;;;;;20.80;5.12;;;;;;;22.65;46.26;98820.97;4399272;32;20556;-71
2021/10/20 07:22:49;;;;;;;26.35;6.37;;;;;;;22.86;45.77;98827.37;4397289;32;20170;-71
2021/10/20 07:25:17;;;;;;;26.98;6.53;;;;;;;22.73;46.16;98818.91;4398978;32;20078;-71
2021/10/20 07:27:43;;;;;;;27.62;5.62;;;;;;;22.91;45.85;98820.69;4398287;32;20444;-71
2021/10/20 07:30:11;;;;;;;28.67;6.18;;;;;;;22.78;45.75;98817.97;4401260;32;21425;-71
2021/10/20 07:32:39;;;;;;;23.42;5.57;;;;;;;22.99;45.33;98819.37;4396985;32;20046;-71
2021/10/20 07:35:07;;;;;;;26.00;6.37;;;;;;;23.22;44.85;98810.78;4393665;32;20085;-71
2021/10/20 07:37:33;;;;;;;25.12;6.55;;;;;;;23.34;44.89;98806.25;4397751;32;20119;-71
2021/10/20 07:39:59;;;;;;;26.20;9.18;;;;;;;23.36;44.76;98809.31;4400353;32;20190;-70
2021/10/20 07:42:25;;;;;;;17.75;6.85;;;;;;;23.33;44.67;98807.59;4406616;32;20164;-72
2021/10/20 07:44:51;;;;;;;23.20;4.45;;;;;;;23.37;44.66;98799.34;4397498;32;20201;-72
2021/10/20 07:47:20;;;;;;;19.62;4.60;;;;;;;23.35;44.42;98807.78;4402529;32;20064;-70
2021/10/20 07:49:46;;;;;;;24.40;5.28;;;;;;;23.61;43.86;98798.00;4401557;32;20499;-70
2021/10/20 07:52:12;;;;;;;25.73;4.65;;;;;;;23.30;44.58;98794.38;4397600;32;20085;-71
2021/10/20 07:54:39;;;;;;;24.70;5.12;;;;;;;23.51;44.34;98804.34;4400996;32;20426;-70
2021/10/20 07:57:05;;;;;;;25.40;5.05;;;;;;;23.58;44.13;98802.03;4400594;32;20190;-70
2021/10/20 07:59:32;;;;;;;19.37;4.25;;;;;;;23.30;44.82;98806.66;4404018;32;20111;-72
2021/10/20 08:01:58;;;;;;;19.10;4.53;;;;;;;23.17;44.97;98800.28;4400807;32;20176;-71
2021/10/20 08:04:24;;;;;;;20.70;5.18;;;;;;;22.90;45.46;98790.47;4388233;32;20616;-71
2021/10/20 08:06:49;;;;;;;24.65;5.10;;;;;;;23.19;45.11;98791.84;4404273;32;20444;-71
2021/10/20 08:09:15;;;;;;;23.45;4.55;;;;;;;23.41;44.51;98794.78;4402645;32;20097;-72
2021/10/20 08:11:40;;;;;;;34.95;5.32;;;;;;;23.12;45.19;98789.75;4397696;32;20181;-71
2021/10/20 08:14:06;;;;;;;24.55;5.53;;;;;;;23.17;44.91;98780.94;4400761;32;20080;-72
2021/10/20 08:16:32;;;;;;;21.95;4.57;;;;;;;23.22;44.91;98787.84;4397170;32;20107;-72
2021/10/20 08:18:58;;;;;;;29.95;5.35;;;;;;;23.33;44.72;98782.53;4402723;32;20061;-72
2021/10/20 08:21:24;;;;;;;23.85;4.47;;;;;;;23.39;44.49;98788.06;4398124;32;20078;-72
2021/10/20 08:23:49;;;;;;;17.80;4.78;;;;;;;23.35;44.58;98785.59;4401825;32;20102;-72
2021/10/20 08:26:15;;;;;;;17.95;5.10;;;;;;;23.33;44.48;98788.28;4402255;32;20511;-72
2021/10/20 08:28:42;;;;;;;23.42;5.28;;;;;;;23.42;44.23;98795.53;4398253;32;20097;-72
2021/10/20 08:31:09;;;;;;;25.23;5.10;;;;;;;23.74;43.91;98800.72;4402643;32;20149;-71
2021/10/20 08:33:35;;;;;;;20.60;4.22;;;;;;;23.69;44.27;98805.31;4405306;32;20119;-72
2021/10/20 08:36:03;;;;;;;28.10;5.10;;;;;;;23.41;44.82;98809.12;4406442;32;20123;-71
2021/10/20 08:38:29;;;;;;;17.20;4.20;;;;;;;23.28;45.34;98802.78;4402300;32;20302;-71
2021/10/20 08:40:55;;;;;;;24.42;3.97;;;;;;;23.12;45.71;98793.38;4392425;32;20046;-72
2021/10/20 08:43:22;;;;;;;23.23;4.37;;;;;;;23.09;46.17;98802.34;4405624;32;20097;-71
2021/10/20 08:45:49;;;;;;;15.63;3.40;;;;;;;23.10;46.28;98796.06;4403175;32;21303;-72
2021/10/20 08:48:19;;;;;;;20.58;4.05;;;;;;;22.85;46.94;98791.41;4400162;32;20034;-72
2021/10/20 08:50:50;;;;;;;18.02;3.72;;;;;;;23.16;46.52;98799.50;4400026;32;20473;-71
2021/10/20 08:53:18;;;;;;;28.30;4.80;;;;;;;23.43;46.17;98786.34;4402879;32;20077;-72
2021/10/20 08:55:46;;;;;;;18.98;4.03;;;;;;;23.32;46.52;98783.84;4401976;32;20081;-71
2021/10/20 08:58:12;;;;;;;18.70;4.25;;;;;;;23.36;46.08;98777.75;4386921;32;20086;-71
2021/10/20 09:00:38;;;;;;;22.77;4.47;;;;;;;23.07;46.80;98771.38;4400776;32;20131;-70
2021/10/20 09:03:04;;;;;;;17.48;4.90;;;;;;;23.37;46.35;98767.78;4402969;32;20155;-69
2021/10/20 09:05:31;;;;;;;21.25;4.60;;;;;;;23.29;46.43;98781.37;4403228;32;20096;-69
2021/10/20 09:07:57;;;;;;;23.90;4.93;;;;;;;23.26;46.71;98768.19;4399897;32;20212;-69
2021/10/20 09:10:25;;;;;;;28.90;4.90;;;;;;;23.33;46.93;98758.81;4406297;32;20108;-69
2021/10/20 09:12:54;;;;;;;24.33;4.85;;;;;;;23.63;46.72;98753.03;4402543;32;20093;-69
2021/10/20 09:15:23;;;;;;;29.10;4.15;;;;;;;23.30;47.38;98748.47;4404523;32;20041;-70
2021/10/20 09:25:45;;;;;;;14.32;3.37;;;;;;;23.50;45.58;98682.22;3974846;32;15027504;-69
2021/10/20 09:28:19;;;;;;;12.68;3.00;;;;;;;23.46;46.19;98696.22;4423196;32;20092;-69
2021/10/20 09:30:44;;;;;;;12.77;2.72;;;;;;;23.36;46.06;98703.88;4422855;32;20123;-69
2021/10/20 09:33:11;;;;;;;13.70;2.70;;;;;;;23.35;46.34;98690.13;4423298;32;20057;-69
2021/10/20 09:35:37;;;;;;;8.88;2.60;;;;;;;23.29;45.94;98693.16;4422146;32;20104;-68
2021/10/20 09:38:04;;;;;;;10.27;2.78;;;;;;;23.42;45.54;98695.06;4421191;32;20115;-68
2021/10/20 09:40:36;;;;;;;8.68;2.50;;;;;;;23.78;45.02;98701.31;4420470;32;20611;-68
2021/10/20 09:43:02;;;;;;;12.90;2.85;;;;;;;24.27;43.95;98700.78;4420459;32;20068;-68
2021/10/20 09:45:34;;;;;;;9.63;2.30;;;;;;;24.36;44.28;98708.78;4423912;32;20499;-68
2021/10/20 09:50:56;;;;;;;7.95;2.03;;;;;;;25.16;42.66;98713.09;3991950;31;15016648;-69
2021/10/20 09:53:26;;;;;;;7.37;1.65;;;;;;;25.75;40.76;98711.03;4443798;32;20048;-69
2021/10/20 09:55:52;;;;;;;7.78;1.67;;;;;;;26.11;39.19;98704.72;4444321;32;20085;-69
2021/10/20 09:58:17;;;;;;;5.93;1.70;;;;;;;26.17;39.01;98702.34;4440611;32;20068;-69
2021/10/20 10:00:44;;;;;;;9.50;1.75;;;;;;;26.51;38.49;98713.81;4440317;32;20100;-69
2021/10/20 10:03:11;;;;;;;6.68;1.40;;;;;;;26.77;37.41;98707.31;4440637;32;20076;-69
2021/10/20 10:05:38;;;;;;;5.55;1.27;;;;;;;26.48;37.99;98701.31;4441522;32;20131;-70
2021/10/20 10:08:04;;;;;;;6.90;1.40;;;;;;;26.47;36.99;98690.37;4442795;32;20089;-69
2021/10/20 10:10:31;;;;;;;4.20;0.90;;;;;;;26.61;37.35;98688.66;4427000;32;20362;-70
2021/10/20 10:13:02;;;;;;;3.53;1.08;;;;;;;26.88;36.16;98672.13;4443562;32;20073;-70
2021/10/20 10:15:29;;;;;;;3.17;1.05;;;;;;;27.30;35.62;98672.59;4440415;32;21182;-70
2021/10/20 10:17:56;;;;;;;4.85;1.30;;;;;;;28.09;34.47;98662.81;4439611;32;20155;-71
2021/10/20 10:20:27;;;;;;;2.83;0.90;;;;;;;27.66;34.67;98663.84;4440982;32;20489;-70
2021/10/20 10:22:55;;;;;;;3.90;0.80;;;;;;;27.19;34.47;98655.84;4441191;32;20741;-69
2021/10/20 10:28:26;;;;;;;3.87;0.90;;;;;;;25.98;37.11;98647.41;3973237;32;15023225;-70
2021/10/20 10:30:55;;;;;;;3.05;0.73;;;;;;;25.98;37.11;98647.41;4420745;32;20088;-69
2021/10/20 10:33:27;;;;;;;4.28;0.98;;;;;;;25.11;38.66;98637.16;4426104;32;20068;-68
2021/10/20 10:36:19;;;;;;;7.00;0.90;;;;;;;24.42;40.04;98646.84;4421597;32;20144;-71
2021/10/20 10:41:28;;;;;;;6.05;0.98;;;;;;;24.55;40.60;98619.94;3975887;32;15052309;-69
2021/10/20 10:44:30;;;;;;;6.53;1.50;;;;;;;24.55;40.60;98619.94;4425408;32;20731;-69
2021/10/20 10:47:19;;;;;;;5.65;0.77;;;;;;;24.77;40.30;98616.91;4425944;32;20162;-70
2021/10/20 10:49:53;;;;;;;9.55;1.35;;;;;;;24.49;40.65;98597.16;4428042;32;20088;-70
2021/10/20 10:52:37;;;;;;;5.47;0.95;;;;;;;24.76;40.40;98592.34;4431150;32;20088;-70
2021/10/20 10:55:22;;;;;;;5.93;1.40;;;;;;;24.79;40.30;98596.94;4425246;32;20373;-70
2021/10/20 11:03:14;;;;;;;7.32;2.25;;;;;;;24.62;41.23;98579.62;3989506;31;15015848;-71
2021/10/20 11:05:48;;;;;;;4.60;1.25;;;;;;;24.62;41.23;98579.62;4443411;32;20084;-69
2021/10/20 11:08:14;;;;;;;5.03;1.13;;;;;;;24.23;41.99;98573.94;4443268;32;20202;-69
2021/10/20 11:10:42;;;;;;;5.78;1.30;;;;;;;24.02;42.18;98590.75;4445232;32;20090;-69
2021/10/20 11:13:11;;;;;;;7.47;1.45;;;;;;;23.88;42.56;98570.09;4443153;32;20084;-69
2021/10/20 11:15:38;;;;;;;6.25;1.40;;;;;;;23.92;43.32;98575.44;4444875;32;20044;-69
2021/10/20 11:18:05;;;;;;;7.90;2.22;;;;;;;23.22;45.78;98561.91;4444234;32;20131;-68
2021/10/20 11:20:35;;;;;;;7.00;1.92;;;;;;;23.34;46.39;98554.44;4445113;32;20080;-68
2021/10/20 11:23:07;;;;;;;10.10;3.45;;;;;;;23.26;46.61;98552.94;4448228;32;20160;-69
2021/10/20 11:25:36;;;;;;;3.67;1.33;;;;;;;22.81;48.02;98558.72;4446730;32;20155;-68
2021/10/20 11:28:04;;;;;;;6.00;1.50;;;;;;;22.38;49.30;98547.44;4443211;32;20092;-68
2021/10/20 11:30:32;;;;;;;6.55;1.40;;;;;;;22.51;49.03;98550.12;4441577;32;20426;-68
2021/10/20 11:33:01;;;;;;;5.62;1.37;;;;;;;22.45;48.91;98543.78;4446674;32;20464;-68
2021/10/20 11:35:30;;;;;;;7.37;1.75;;;;;;;22.38;48.66;98533.09;4444883;32;20045;-70
2021/10/20 11:38:00;;;;;;;7.32;1.55;;;;;;;22.51;48.58;98530.06;4443233;32;20041;-70
2021/10/20 11:40:31;;;;;;;9.82;2.20;;;;;;;22.54;48.23;98535.44;4443418;32;20152;-69
2021/10/20 11:42:57;;;;;;;4.72;1.20;;;;;;;22.59;48.36;98542.31;4447272;32;20053;-70
2021/10/20 11:45:26;;;;;;;6.05;1.60;;;;;;;22.31;47.87;98522.41;4445664;32;20084;-68
2021/10/20 11:48:00;;;;;;;4.37;1.42;;;;;;;22.58;48.14;98523.59;4442545;32;21260;-69